Illinois — WYQ3689 — position and weather

sailwx.info

Track history (hours):
 
Tides and Currents Weather Stations Pressure Air Temp Water Temp Dewpoint Dewpoint Depression Visibility Wind Speed Wind Dir Waves Ship Positions

Illinois

Owner: Great Lakes Dredge & Dock Company, OAK BROOK, IL. More information available from US FCC via Universal Licensing System and Coast Guard Vessel Documentation Center.

Last reported at 2017-Jan-22 21:21 UTC. Time now 2017-Jan-24 23:31 UTC.
Position N 38°57' W 074°52'.

Length 69 m; draft 3 m.

Type: Dredging. MMSI: 366796250.

Date/timePositionNaut miles runAvg speedWind from/ knotsBaromVisibWave heightAir tempDewpointWater temp
2017-Jan-22 21:21N 38°57' W 074°52'0 0.0
2017-Jan-22 18:24N 38°57' W 074°52'0 0.0
2017-Jan-22 13:32N 38°57' W 074°52'0 0.0
2017-Jan-22 12:27N 38°57' W 074°52'0 0.0
2017-Jan-22 01:19N 38°57' W 074°52'0 0.0
2017-Jan-22 00:33N 38°57' W 074°52'0 0.0
2017-Jan-21 23:33N 38°57' W 074°52'0 0.0
2017-Jan-21 22:33N 38°57' W 074°52'0 0.0
2017-Jan-21 20:33N 38°57' W 074°52'0 0.0
2017-Jan-21 19:33N 38°57' W 074°52'0 0.0
2017-Jan-21 18:32N 38°57' W 074°52'0 0.0
2017-Jan-21 17:33N 38°57' W 074°52'0 0.0
2017-Jan-21 15:08N 38°57' W 074°52'0 0.0
2017-Jan-21 14:33N 38°57' W 074°52'0 0.0
2017-Jan-21 13:29N 38°57' W 074°52'0 0.0
2017-Jan-21 11:14N 38°57' W 074°52'0 0.0
2017-Jan-21 09:32N 38°57' W 074°52'0 0.0
2017-Jan-21 05:33N 38°57' W 074°52'0 0.0
2017-Jan-21 02:14N 38°57' W 074°52'0 0.0
2017-Jan-21 00:31N 38°57' W 074°52'0 0.0
2017-Jan-20 23:05N 38°57' W 074°52'0 0.0
2017-Jan-20 22:31N 38°57' W 074°52'0 0.0
2017-Jan-20 20:32N 38°57' W 074°52'0 0.0
2017-Jan-20 19:33N 38°57' W 074°52'0 0.0
2017-Jan-20 18:33N 38°57' W 074°52'0 0.0
2017-Jan-20 17:30N 38°57' W 074°52'0 0.0
2017-Jan-20 16:30N 38°57' W 074°52'0 0.0
2017-Jan-20 15:33N 38°57' W 074°52'0 0.0
2017-Jan-20 14:33N 38°57' W 074°52'0 0.0
2017-Jan-20 13:29N 38°57' W 074°52'0 0.0
2017-Jan-20 12:05N 38°57' W 074°52'0 0.0
2017-Jan-20 11:27N 38°57' W 074°52'0 0.0
2017-Jan-20 10:28N 38°57' W 074°52'0 0.0
2017-Jan-20 09:26N 38°57' W 074°52'0 0.0
2017-Jan-20 08:27N 38°57' W 074°52'0 0.0
2017-Jan-20 07:31N 38°57' W 074°52'0 0.0
2017-Jan-20 06:32N 38°57' W 074°52'0 0.0
2017-Jan-20 05:30N 38°57' W 074°52'0 0.0
2017-Jan-20 04:26N 38°57' W 074°52'0 0.0
2017-Jan-18 04:29N 38°57' W 074°52'0 0.0
2017-Jan-18 02:33N 38°57' W 074°52'0 0.0
2017-Jan-17 20:28N 38°57' W 074°52'0 0.0
2017-Jan-17 19:31N 38°57' W 074°52'0 0.0
2017-Jan-17 18:11N 38°57' W 074°52'0 0.0
2017-Jan-17 17:31N 38°57' W 074°52'0 0.0
2017-Jan-17 16:28N 38°57' W 074°52'0 0.0
2017-Jan-17 15:28N 38°57' W 074°52'0 0.0
2017-Jan-17 14:32N 38°57' W 074°52'0 0.0
2017-Jan-17 13:33N 38°57' W 074°52'0 0.0
2017-Jan-17 08:28N 38°57' W 074°52'0 0.0
2017-Jan-17 07:33N 38°57' W 074°52'0 0.0
2017-Jan-17 06:33N 38°57' W 074°52'0 0.0
2017-Jan-17 05:33N 38°57' W 074°52'0 0.0
2017-Jan-17 04:33N 38°57' W 074°52'0 0.0
2017-Jan-17 03:33N 38°57' W 074°52'0 0.0
2017-Jan-17 02:32N 38°57' W 074°52'0 0.0
2017-Jan-17 01:33N 38°57' W 074°52'0 0.0
2017-Jan-17 00:30N 38°57' W 074°52'0 0.0
2017-Jan-16 23:33N 38°57' W 074°52'0 0.0
2017-Jan-16 22:32N 38°57' W 074°52'0 0.0
2017-Jan-16 21:32N 38°57' W 074°52'0 0.0
2017-Jan-16 20:33N 38°57' W 074°52'0 0.0
2017-Jan-16 19:31N 38°57' W 074°52'0 0.0
2017-Jan-16 18:33N 38°57' W 074°52'0 0.0
2017-Jan-16 17:33N 38°57' W 074°52'0 0.0
2017-Jan-16 16:33N 38°57' W 074°52'2 1.8
2017-Jan-16 15:20N 38°55' W 074°51'2 1.8
2017-Jan-16 14:23N 38°56' W 074°49'2 0.8
2017-Jan-16 12:33N 38°55' W 074°51'7 3.4
2017-Jan-16 10:33N 38°58' W 074°43'4 3.4
2017-Jan-16 09:28N 39°01' W 074°39'20 1.1
2017-Jan-15 14:33N 39°16' W 074°22'4 3.8
2017-Jan-15 13:33N 39°19' W 074°18'4 3.8
2017-Jan-15 12:33N 39°21' W 074°15'4 3.9
2017-Jan-15 11:33N 39°24' W 074°11'3 3.5
2017-Jan-15 10:33N 39°27' W 074°09'8 3.8
2017-Jan-15 08:29N 39°33' W 074°02'8 3.8
2017-Jan-15 06:23N 39°41' W 073°59'3 3.8
2017-Jan-15 05:32N 39°44' W 073°59'34 4.0
2017-Jan-14 21:05N 40°18' W 073°52'2 4.3
2017-Jan-14 20:32N 40°20' W 073°51'4 4.3
2017-Jan-14 19:32N 40°24' W 073°49'4 4.2
2017-Jan-14 18:32N 40°28' W 073°47'4 4.3
2017-Jan-14 17:33N 40°32' W 073°45'2 1.7
2017-Jan-14 16:10N 40°34' W 073°46'0 0.0
2017-Jan-14 15:33N 40°34' W 073°46'1 0.9
2017-Jan-14 14:21N 40°35' W 073°45'1 0.6
2017-Jan-14 13:31N 40°36' W 073°45'0 0.0
2017-Jan-14 12:33N 40°36' W 073°45'0 0.0
2017-Jan-14 11:33N 40°36' W 073°45'0 0.0
2017-Jan-14 10:33N 40°36' W 073°45'0 0.0
2017-Jan-14 09:33N 40°36' W 073°45'0 0.0
2017-Jan-14 08:33N 40°36' W 073°45'0 0.0
2017-Jan-14 07:32N 40°36' W 073°45'0 0.0
2017-Jan-14 06:32N 40°36' W 073°45'0 0.0
2017-Jan-14 05:30N 40°36' W 073°45'0 0.0
2017-Jan-13 23:33N 40°36' W 073°45'0 0.0
2017-Jan-13 22:33N 40°36' W 073°45'0 0.0
2017-Jan-13 21:31N 40°36' W 073°45'0 0.0
2017-Jan-13 18:31N 40°36' W 073°45'0 0.0
2017-Jan-13 17:33N 40°36' W 073°45'0 0.0
2017-Jan-13 16:33N 40°36' W 073°45'0 0.0
2017-Jan-13 15:33N 40°36' W 073°45'0 0.0
2017-Jan-13 14:27N 40°36' W 073°45'0 0.0
2017-Jan-13 12:21N 40°36' W 073°45'0 0.0
2017-Jan-13 10:27N 40°36' W 073°45'0 0.0
2017-Jan-13 09:10N 40°36' W 073°45'0 0.0
2017-Jan-13 08:33N 40°36' W 073°45'0 0.0
2017-Jan-13 07:33N 40°36' W 073°45'0 0.0
2017-Jan-13 06:29N 40°36' W 073°45'0 0.0
2017-Jan-13 05:32N 40°36' W 073°45'0 0.0
2017-Jan-13 04:25N 40°36' W 073°45'0 0.0
2017-Jan-13 03:18N 40°36' W 073°45'0 0.0
2017-Jan-13 02:32N 40°36' W 073°45'0 0.0
2017-Jan-13 01:33N 40°36' W 073°45'0 0.0
2017-Jan-13 00:33N 40°36' W 073°45'0 0.0
2017-Jan-12 23:33N 40°36' W 073°45'0 0.0
2017-Jan-12 22:33N 40°36' W 073°45'0 0.0
2017-Jan-12 21:33N 40°36' W 073°45'  
Track history (hours):
 
Tides and Currents Weather Stations Pressure Air Temp Water Temp Dewpoint Dewpoint Depression Visibility Wind Speed Wind Dir Waves Ship Positions

Illinois

Owner: Great Lakes Dredge & Dock Company, OAK BROOK, IL. More information available from US FCC via Universal Licensing System and Coast Guard Vessel Documentation Center.

Last reported at 2017-Jan-22 21:21 UTC. Time now 2017-Jan-24 23:31 UTC.
Position N 38°57' W 074°52'.

Length 69 m; draft 3 m.

Type: Dredging. MMSI: 366796250.

Date/timePositionNaut miles runAvg speedWind from/ knotsBaromVisibWave heightAir tempDewpointWater temp
2017-Jan-22 21:21N 38°57' W 074°52'0 0.0
2017-Jan-22 18:24N 38°57' W 074°52'0 0.0
2017-Jan-22 13:32N 38°57' W 074°52'0 0.0
2017-Jan-22 12:27N 38°57' W 074°52'0 0.0
2017-Jan-22 01:19N 38°57' W 074°52'0 0.0
2017-Jan-22 00:33N 38°57' W 074°52'0 0.0
2017-Jan-21 23:33N 38°57' W 074°52'0 0.0
2017-Jan-21 22:33N 38°57' W 074°52'0 0.0
2017-Jan-21 20:33N 38°57' W 074°52'0 0.0
2017-Jan-21 19:33N 38°57' W 074°52'0 0.0
2017-Jan-21 18:32N 38°57' W 074°52'0 0.0
2017-Jan-21 17:33N 38°57' W 074°52'0 0.0
2017-Jan-21 15:08N 38°57' W 074°52'0 0.0
2017-Jan-21 14:33N 38°57' W 074°52'0 0.0
2017-Jan-21 13:29N 38°57' W 074°52'0 0.0
2017-Jan-21 11:14N 38°57' W 074°52'0 0.0
2017-Jan-21 09:32N 38°57' W 074°52'0 0.0
2017-Jan-21 05:33N 38°57' W 074°52'0 0.0
2017-Jan-21 02:14N 38°57' W 074°52'0 0.0
2017-Jan-21 00:31N 38°57' W 074°52'0 0.0
2017-Jan-20 23:05N 38°57' W 074°52'0 0.0
2017-Jan-20 22:31N 38°57' W 074°52'0 0.0
2017-Jan-20 20:32N 38°57' W 074°52'0 0.0
2017-Jan-20 19:33N 38°57' W 074°52'0 0.0
2017-Jan-20 18:33N 38°57' W 074°52'0 0.0
2017-Jan-20 17:30N 38°57' W 074°52'0 0.0
2017-Jan-20 16:30N 38°57' W 074°52'0 0.0
2017-Jan-20 15:33N 38°57' W 074°52'0 0.0
2017-Jan-20 14:33N 38°57' W 074°52'0 0.0
2017-Jan-20 13:29N 38°57' W 074°52'0 0.0
2017-Jan-20 12:05N 38°57' W 074°52'0 0.0
2017-Jan-20 11:27N 38°57' W 074°52'0 0.0
2017-Jan-20 10:28N 38°57' W 074°52'0 0.0
2017-Jan-20 09:26N 38°57' W 074°52'0 0.0
2017-Jan-20 08:27N 38°57' W 074°52'0 0.0
2017-Jan-20 07:31N 38°57' W 074°52'0 0.0
2017-Jan-20 06:32N 38°57' W 074°52'0 0.0
2017-Jan-20 05:30N 38°57' W 074°52'0 0.0
2017-Jan-20 04:26N 38°57' W 074°52'0 0.0
2017-Jan-18 04:29N 38°57' W 074°52'0 0.0
2017-Jan-18 02:33N 38°57' W 074°52'0 0.0
2017-Jan-17 20:28N 38°57' W 074°52'0 0.0
2017-Jan-17 19:31N 38°57' W 074°52'0 0.0
2017-Jan-17 18:11N 38°57' W 074°52'0 0.0
2017-Jan-17 17:31N 38°57' W 074°52'0 0.0
2017-Jan-17 16:28N 38°57' W 074°52'0 0.0
2017-Jan-17 15:28N 38°57' W 074°52'0 0.0
2017-Jan-17 14:32N 38°57' W 074°52'0 0.0
2017-Jan-17 13:33N 38°57' W 074°52'0 0.0
2017-Jan-17 08:28N 38°57' W 074°52'0 0.0
2017-Jan-17 07:33N 38°57' W 074°52'0 0.0
2017-Jan-17 06:33N 38°57' W 074°52'0 0.0
2017-Jan-17 05:33N 38°57' W 074°52'0 0.0
2017-Jan-17 04:33N 38°57' W 074°52'0 0.0
2017-Jan-17 03:33N 38°57' W 074°52'0 0.0
2017-Jan-17 02:32N 38°57' W 074°52'0 0.0
2017-Jan-17 01:33N 38°57' W 074°52'0 0.0
2017-Jan-17 00:30N 38°57' W 074°52'0 0.0
2017-Jan-16 23:33N 38°57' W 074°52'0 0.0
2017-Jan-16 22:32N 38°57' W 074°52'0 0.0
2017-Jan-16 21:32N 38°57' W 074°52'0 0.0
2017-Jan-16 20:33N 38°57' W 074°52'0 0.0
2017-Jan-16 19:31N 38°57' W 074°52'0 0.0
2017-Jan-16 18:33N 38°57' W 074°52'0 0.0
2017-Jan-16 17:33N 38°57' W 074°52'0 0.0
2017-Jan-16 16:33N 38°57' W 074°52'2 1.8
2017-Jan-16 15:20N 38°55' W 074°51'2 1.8
2017-Jan-16 14:23N 38°56' W 074°49'2 0.8
2017-Jan-16 12:33N 38°55' W 074°51'7 3.4
2017-Jan-16 10:33N 38°58' W 074°43'4 3.4
2017-Jan-16 09:28N 39°01' W 074°39'20 1.1
2017-Jan-15 14:33N 39°16' W 074°22'4 3.8
2017-Jan-15 13:33N 39°19' W 074°18'4 3.8
2017-Jan-15 12:33N 39°21' W 074°15'4 3.9
2017-Jan-15 11:33N 39°24' W 074°11'3 3.5
2017-Jan-15 10:33N 39°27' W 074°09'8 3.8
2017-Jan-15 08:29N 39°33' W 074°02'8 3.8
2017-Jan-15 06:23N 39°41' W 073°59'3 3.8
2017-Jan-15 05:32N 39°44' W 073°59'34 4.0
2017-Jan-14 21:05N 40°18' W 073°52'2 4.3
2017-Jan-14 20:32N 40°20' W 073°51'4 4.3
2017-Jan-14 19:32N 40°24' W 073°49'4 4.2
2017-Jan-14 18:32N 40°28' W 073°47'4 4.3
2017-Jan-14 17:33N 40°32' W 073°45'2 1.7
2017-Jan-14 16:10N 40°34' W 073°46'0 0.0
2017-Jan-14 15:33N 40°34' W 073°46'1 0.9
2017-Jan-14 14:21N 40°35' W 073°45'1 0.6
2017-Jan-14 13:31N 40°36' W 073°45'0 0.0
2017-Jan-14 12:33N 40°36' W 073°45'0 0.0
2017-Jan-14 11:33N 40°36' W 073°45'0 0.0
2017-Jan-14 10:33N 40°36' W 073°45'0 0.0
2017-Jan-14 09:33N 40°36' W 073°45'0 0.0
2017-Jan-14 08:33N 40°36' W 073°45'0 0.0
2017-Jan-14 07:32N 40°36' W 073°45'0 0.0
2017-Jan-14 06:32N 40°36' W 073°45'0 0.0
2017-Jan-14 05:30N 40°36' W 073°45'0 0.0
2017-Jan-13 23:33N 40°36' W 073°45'0 0.0
2017-Jan-13 22:33N 40°36' W 073°45'0 0.0
2017-Jan-13 21:31N 40°36' W 073°45'0 0.0
2017-Jan-13 18:31N 40°36' W 073°45'0 0.0
2017-Jan-13 17:33N 40°36' W 073°45'0 0.0
2017-Jan-13 16:33N 40°36' W 073°45'0 0.0
2017-Jan-13 15:33N 40°36' W 073°45'0 0.0
2017-Jan-13 14:27N 40°36' W 073°45'0 0.0
2017-Jan-13 12:21N 40°36' W 073°45'0 0.0
2017-Jan-13 10:27N 40°36' W 073°45'0 0.0
2017-Jan-13 09:10N 40°36' W 073°45'0 0.0
2017-Jan-13 08:33N 40°36' W 073°45'0 0.0
2017-Jan-13 07:33N 40°36' W 073°45'0 0.0
2017-Jan-13 06:29N 40°36' W 073°45'0 0.0
2017-Jan-13 05:32N 40°36' W 073°45'0 0.0
2017-Jan-13 04:25N 40°36' W 073°45'0 0.0
2017-Jan-13 03:18N 40°36' W 073°45'0 0.0
2017-Jan-13 02:32N 40°36' W 073°45'0 0.0
2017-Jan-13 01:33N 40°36' W 073°45'0 0.0
2017-Jan-13 00:33N 40°36' W 073°45'0 0.0
2017-Jan-12 23:33N 40°36' W 073°45'0 0.0
2017-Jan-12 22:33N 40°36' W 073°45'0 0.0
2017-Jan-12 21:33N 40°36' W 073°45'  

Dump ship's entire track history